D/T METAR WX W/DIR W/SPE G/SPE TEMP DEWP
9/12/19 11:50 EGCN 091150Z 31016KT CAVOK 07/M00 Q1013 NW (310°) 18.4mph 7°C 0°C
9/12/19 11:20 EGCN 091120Z 32019G31KT CAVOK 07/00 Q1012 NW (320°) 21.9mph 35.7mph 7°C 0°C
9/12/19 10:50 EGCN 091050Z 31018G30KT CAVOK 07/00 Q1011 NW (310°) 20.7mph 34.5mph 7°C 0°C
9/12/19 10:20 EGCN 091020Z 31018KT CAVOK 07/00 Q1010 NW (310°) 20.7mph 7°C 0°C
9/12/19 09:50 EGCN 090950Z 31017KT CAVOK 07/00 Q1008 NW (310°) 19.6mph 7°C 0°C
9/12/19 09:20 EGCN 090920Z 31017KT CAVOK 06/00 Q1007 NW (310°) 19.6mph 6°C 0°C
9/12/19 08:50 EGCN 090850Z 31021KT CAVOK 06/00 Q1006 NW (310°) 24.2mph 6°C 0°C
9/12/19 08:20 EGCN 090820Z 31019G30KT CAVOK 07/01 Q1004 NW (310°) 21.9mph 34.5mph 7°C 1°C
9/12/19 07:50 EGCN 090750Z 31019KT CAVOK 06/01 Q1003 NW (310°) 21.9mph 6°C 1°C
9/12/19 07:20 EGCN 090720Z 31021KT 9999 FEW038 07/01 Q1001 NW (310°) 24.2mph 7°C 1°C
9/12/19 06:50 EGCN 090650Z 32019KT 9999 FEW037 07/02 Q1000 NW (320°) 21.9mph 7°C 2°C
9/12/19 06:20 EGCN 090620Z 32021G32KT 9999 SCT034 07/02 Q0998 NW (320°) 24.2mph 36.8mph 7°C 2°C
9/12/19 05:50 EGCN 090550Z 32018G29KT 9999 FEW036 07/02 Q0997 NW (320°) 20.7mph 33.4mph 7°C 2°C
9/12/19 05:20 EGCN 090520Z 31017KT CAVOK 07/03 Q0996 NW (310°) 19.6mph 7°C 3°C
9/12/19 04:50 EGCN 090450Z 31015G25KT CAVOK 07/04 Q0994 NW (310°) 17.3mph 28.8mph 7°C 4°C
9/12/19 04:20 EGCN 090420Z 29013KT 9999 SCT045 07/05 Q0993 WNW (290°) 15.0mph 7°C 5°C
9/12/19 03:50 EGCN 090350Z 28010KT 9999 SCT045 06/05 Q0992 W (280°) 11.5mph 6°C 5°C
9/12/19 03:20 EGCN 090320Z AUTO 25007KT 9999 FEW017/// SCT022/// BKN028/// 06/05 Q0991 WSW (250°) 8.1mph 6°C 5°C
9/12/19 02:50 EGCN 090250Z AUTO VRB03KT 9999 BKN019/// OVC024/// 06/04 Q0990 N (0°) 3.5mph 6°C 4°C
9/12/19 02:20 EGCN 090220Z AUTO 25006KT 9999 SCT026/// BKN032/// BKN041/// 06/04 Q0989 RERA WSW (250°) 6.9mph 6°C 4°C
9/12/19 01:50 EGCN 090150Z 24005KT 9999 FEW030 BKN040 05/04 Q0988 WSW (240°) 5.8mph 5°C 4°C
9/12/19 01:20 EGCN 090120Z 22009KT 9999 BKN030 06/04 Q0988 SW (220°) 10.4mph 6°C 4°C
9/12/19 00:50 EGCN 090050Z 22010KT 9999 BKN030 06/04 Q0987 SW (220°) 11.5mph 6°C 4°C
9/12/19 00:20 EGCN 090020Z 22013KT 9999 FEW023 BKN030 06/03 Q0987 SW (220°) 15.0mph 6°C 3°C
8/12/19 23:20 EGCN 082320Z 20011KT CAVOK 05/03 Q0987 SSW (200°) 12.7mph 5°C 3°C
8/12/19 22:50 EGCN 082250Z 20014KT CAVOK 05/03 Q0987 SSW (200°) 16.1mph 5°C 3°C
8/12/19 22:20 EGCN 082220Z 21017KT 9999 FEW014 06/03 Q0987 SSW (210°) 19.6mph 6°C 3°C
8/12/19 21:50 EGCN 082150Z 21018KT CAVOK 06/02 Q0987 SSW (210°) 20.7mph 6°C 2°C
8/12/19 21:20 EGCN 082120Z 21019KT CAVOK 06/02 Q0987 SSW (210°) 21.9mph 6°C 2°C
8/12/19 20:50 EGCN 082050Z 22021KT CAVOK 06/02 Q0988 SW (220°) 24.2mph 6°C 2°C
8/12/19 20:20 EGCN 082020Z 22020KT CAVOK 06/02 Q0988 SW (220°) 23.0mph 6°C 2°C
8/12/19 19:50 EGCN 081950Z 22017KT CAVOK 06/02 Q0989 SW (220°) 19.6mph 6°C 2°C
8/12/19 19:20 EGCN 081920Z 21020KT CAVOK 06/02 Q0989 SSW (210°) 23.0mph 6°C 2°C
8/12/19 18:50 EGCN 081850Z 21020KT CAVOK 06/02 Q0989 SSW (210°) 23.0mph 6°C 2°C
8/12/19 18:20 EGCN 081820Z 22017KT CAVOK 06/02 Q0990 SW (220°) 19.6mph 6°C 2°C
8/12/19 17:50 EGCN 081750Z 22016KT 9999 FEW025 06/02 Q0991 SW (220°) 18.4mph 6°C 2°C
8/12/19 17:20 EGCN 081720Z 22017KT CAVOK 07/02 Q0991 SW (220°) 19.6mph 7°C 2°C
8/12/19 16:20 EGCN 081620Z 23015KT 9999 FEW020 07/02 Q0991 SW (230°) 17.3mph 7°C 2°C
8/12/19 15:50 EGCN 081550Z 24022G32KT 9999 SHRA SCT022CB SCT028 08/03 Q0993 SHRA WSW (240°) 25.3mph 36.8mph 8°C 3°C
8/12/19 15:20 EGCN 081520Z 23019KT 9999 FEW025CB 08/02 Q0992 SW (230°) 21.9mph 8°C 2°C
8/12/19 14:50 EGCN 081450Z 23019KT 9999 FEW038 08/02 Q0992 SW (230°) 21.9mph 8°C 2°C
8/12/19 14:20 EGCN 081420Z 23019KT 9999 FEW034 09/02 Q0992 SW (230°) 21.9mph 9°C 2°C
8/12/19 13:50 EGCN 081350Z 24018G28KT 9999 FEW035 09/03 Q0993 WSW (240°) 20.7mph 32.2mph 9°C 3°C
8/12/19 13:20 EGCN 081320Z 24022G33KT 9999 FEW008 09/02 Q0993 WSW (240°) 25.3mph 38.0mph 9°C 2°C
8/12/19 12:50 EGCN 081250Z 24023G36KT 9999 FEW036 09/02 Q0993 WSW (240°) 26.5mph 41.4mph 9°C 2°C
8/12/19 12:20 EGCN 081220Z 23023G37KT 9999 FEW030 09/02 Q0993 SW (230°) 26.5mph 42.6mph 9°C 2°C
8/12/19 11:50 EGCN 081150Z 23022KT 9999 FEW040 09/03 Q0994 SW (230°) 25.3mph 9°C 3°C
8/12/19 11:20 EGCN 081120Z 24018KT 9999 FEW039 09/03 Q0994 WSW (240°) 20.7mph 9°C 3°C